createdAt,value
2023-03-26T00:02:30.460Z,9.68
2023-03-26T00:04:58.312Z,8.77
2023-03-26T00:07:27.880Z,7.38
2023-03-26T00:09:57.825Z,7.22
2023-03-26T00:12:26.465Z,6.93
2023-03-26T00:14:56.345Z,9.45
2023-03-26T00:17:30.362Z,7.55
2023-03-26T00:19:59.626Z,6.28
2023-03-26T00:22:27.187Z,8.23
2023-03-26T00:24:56.798Z,7.78
2023-03-26T00:27:27.570Z,7.77
2023-03-26T00:29:56.714Z,8.05
2023-03-26T00:32:27.804Z,10.45
2023-03-26T00:35:22.320Z,6.82
2023-03-26T00:37:51.501Z,6.95
2023-03-26T00:40:19.371Z,8.27
2023-03-26T00:42:47.399Z,5.97
2023-03-26T00:45:21.136Z,8.70
2023-03-26T00:47:49.154Z,8.25
2023-03-26T00:50:18.043Z,4.82
2023-03-26T00:52:48.340Z,8.65
2023-03-26T00:55:16.089Z,7.15
2023-03-26T00:57:45.953Z,6.93
2023-03-26T01:00:17.133Z,6.68
2023-03-26T01:02:45.395Z,7.03
2023-03-26T01:05:43.377Z,7.00
2023-03-26T01:08:22.590Z,6.65
2023-03-26T01:10:52.370Z,7.22
2023-03-26T01:13:21.903Z,5.00
2023-03-26T01:15:51.056Z,8.93
2023-03-26T01:18:21.788Z,6.45
2023-03-26T01:20:52.374Z,5.55
2023-03-26T01:23:26.364Z,6.50
2023-03-26T01:26:42.720Z,6.70
2023-03-26T01:29:18.647Z,7.03
2023-03-26T01:31:55.580Z,6.15
2023-03-26T01:34:30.668Z,6.72
2023-03-26T01:37:09.393Z,6.03
2023-03-26T01:39:50.383Z,7.65
2023-03-26T01:42:25.869Z,6.38
2023-03-26T01:44:58.960Z,6.80
2023-03-26T01:47:27.198Z,7.75
2023-03-26T01:49:55.889Z,7.72
2023-03-26T01:52:26.211Z,6.10
2023-03-26T01:54:55.390Z,7.78
2023-03-26T01:57:35.767Z,7.78
2023-03-26T02:00:22.009Z,6.32
2023-03-26T02:03:03.509Z,6.75
2023-03-26T02:05:35.751Z,5.25
2023-03-26T02:08:09.549Z,8.10
2023-03-26T02:10:41.489Z,7.60
2023-03-26T02:13:11.082Z,9.38
2023-03-26T02:15:39.369Z,7.78
2023-03-26T02:18:10.702Z,7.75
2023-03-26T02:20:38.549Z,6.85
2023-03-26T02:23:06.627Z,8.52
2023-03-26T02:25:35.721Z,8.40
2023-03-26T02:28:04.190Z,8.05
2023-03-26T02:30:33.777Z,13.25
2023-03-26T02:33:01.955Z,10.55
2023-03-26T02:35:40.318Z,9.10
2023-03-26T02:38:10.445Z,9.25
2023-03-26T02:40:38.189Z,9.90
2023-03-26T02:43:06.200Z,10.18
2023-03-26T02:45:37.421Z,8.65
2023-03-26T02:48:08.391Z,10.15
2023-03-26T02:50:42.341Z,12.25
2023-03-26T02:53:30.364Z,10.82
2023-03-26T02:56:17.192Z,13.55
2023-03-26T02:58:59.360Z,12.00
2023-03-26T03:01:30.813Z,12.85
2023-03-26T03:04:01.411Z,13.73
2023-03-26T03:06:38.177Z,14.02
2023-03-26T03:09:06.373Z,14.82
2023-03-26T03:11:53.969Z,11.13
2023-03-26T03:14:22.027Z,15.85
2023-03-26T03:16:51.444Z,14.60
2023-03-26T03:19:19.088Z,16.02
2023-03-26T03:21:48.353Z,15.10
2023-03-26T03:24:18.446Z,19.50
2023-03-26T03:26:50.149Z,15.25
2023-03-26T03:29:31.456Z,15.30
2023-03-26T03:32:10.156Z,14.60
2023-03-26T03:34:43.859Z,12.68
2023-03-26T03:37:12.551Z,17.60
2023-03-26T03:39:47.120Z,16.83
2023-03-26T03:42:20.360Z,13.23
2023-03-26T03:44:51.325Z,15.60
2023-03-26T03:47:40.747Z,17.25
2023-03-26T03:50:10.380Z,19.48
2023-03-26T03:53:10.931Z,12.70
2023-03-26T03:55:42.012Z,16.13
2023-03-26T03:58:10.162Z,14.93
2023-03-26T04:01:06.430Z,15.32
2023-03-26T04:03:56.725Z,12.30
2023-03-26T04:06:31.144Z,15.45
2023-03-26T04:08:59.360Z,12.73
2023-03-26T04:11:27.348Z,16.27
2023-03-26T04:14:27.188Z,13.18
2023-03-26T04:17:05.281Z,17.23
2023-03-26T04:19:38.400Z,18.00
2023-03-26T04:22:09.323Z,16.75
2023-03-26T04:24:48.664Z,18.55
2023-03-26T04:27:18.502Z,18.77
2023-03-26T04:29:50.559Z,16.70
2023-03-26T04:32:26.389Z,22.35
2023-03-26T04:35:00.358Z,16.42
2023-03-26T04:37:34.396Z,23.40
2023-03-26T04:40:14.651Z,15.38
2023-03-26T04:42:59.850Z,21.38
2023-03-26T04:45:47.854Z,18.45
2023-03-26T04:48:16.361Z,17.70
2023-03-26T04:50:46.483Z,21.05
2023-03-26T04:53:18.085Z,20.55
2023-03-26T04:55:56.517Z,17.63
2023-03-26T04:58:44.168Z,14.20
2023-03-26T05:01:13.767Z,18.50
2023-03-26T05:03:45.599Z,22.10
2023-03-26T05:06:18.627Z,17.10
2023-03-26T05:09:12.400Z,19.75
2023-03-26T05:12:09.243Z,18.85
2023-03-26T05:14:48.767Z,17.80
2023-03-26T05:17:24.798Z,20.65
2023-03-26T05:19:56.343Z,18.25
2023-03-26T05:22:27.382Z,23.15
2023-03-26T05:25:16.650Z,15.77
2023-03-26T05:27:47.391Z,20.75
2023-03-26T05:30:42.761Z,18.95
2023-03-26T05:33:11.989Z,21.95
2023-03-26T05:35:49.304Z,20.05
2023-03-26T05:38:18.353Z,18.63
2023-03-26T05:40:46.060Z,22.05
2023-03-26T05:43:19.056Z,20.80
2023-03-26T05:45:50.855Z,20.90
2023-03-26T05:48:28.698Z,25.13
2023-03-26T05:50:58.108Z,16.98
2023-03-26T05:53:30.364Z,19.70
2023-03-26T05:56:19.478Z,17.98
2023-03-26T05:59:16.402Z,19.10
2023-03-26T06:02:02.564Z,22.85
2023-03-26T06:04:50.912Z,23.73
2023-03-26T06:07:42.497Z,17.42
2023-03-26T06:10:19.366Z,17.75
2023-03-26T06:12:47.367Z,20.92
2023-03-26T06:15:41.070Z,22.80
2023-03-26T06:18:19.385Z,20.48
2023-03-26T06:21:09.514Z,15.50
2023-03-26T06:23:44.470Z,20.42
2023-03-26T06:26:30.517Z,16.45
2023-03-26T06:29:06.527Z,19.85
2023-03-26T06:31:46.866Z,17.30
2023-03-26T06:34:33.469Z,17.20
2023-03-26T06:37:02.912Z,19.73
2023-03-26T06:39:31.466Z,17.85
2023-03-26T06:42:14.152Z,18.00
2023-03-26T06:44:55.241Z,18.35
2023-03-26T06:50:56.593Z,18.02
2023-03-26T06:53:51.738Z,18.23
2023-03-26T06:56:39.387Z,17.45
2023-03-26T06:59:25.740Z,18.30
2023-03-26T07:02:12.088Z,21.58
2023-03-26T07:05:17.923Z,18.02
2023-03-26T07:08:15.519Z,16.60
2023-03-26T07:11:06.718Z,18.45
2023-03-26T07:13:37.723Z,18.77
2023-03-26T07:16:25.929Z,17.17
2023-03-26T07:18:56.409Z,18.92
2023-03-26T07:21:29.049Z,16.45
2023-03-26T07:23:57.480Z,18.58
2023-03-26T07:26:57.204Z,18.20
2023-03-26T07:29:39.483Z,20.35
2023-03-26T07:32:26.305Z,20.88
2023-03-26T07:35:24.418Z,22.67
2023-03-26T07:38:30.342Z,23.27
2023-03-26T07:41:38.773Z,24.73
2023-03-26T07:44:49.565Z,22.73
2023-03-26T07:47:38.847Z,17.63
2023-03-26T07:50:33.216Z,18.95
2023-03-26T07:53:13.621Z,18.65
2023-03-26T07:55:59.133Z,19.52
2023-03-26T07:58:53.385Z,17.85
2023-03-26T08:01:50.375Z,18.17
2023-03-26T08:05:00.804Z,22.60
2023-03-26T08:08:16.426Z,20.15
2023-03-26T08:11:10.348Z,21.60
2023-03-26T08:14:00.692Z,24.30
2023-03-26T08:16:36.522Z,15.70
2023-03-26T08:19:16.527Z,16.88
2023-03-26T08:21:51.665Z,19.52
2023-03-26T08:24:23.732Z,15.63
2023-03-26T08:27:01.381Z,14.38
2023-03-26T08:29:41.184Z,23.58
2023-03-26T08:32:15.455Z,16.55
2023-03-26T08:34:43.039Z,19.13
2023-03-26T08:37:11.983Z,20.13
2023-03-26T08:39:41.695Z,18.67
2023-03-26T08:42:58.201Z,20.13
2023-03-26T08:45:42.798Z,16.50
2023-03-26T08:48:52.256Z,18.60
2023-03-26T08:52:01.653Z,14.73
2023-03-26T08:54:48.327Z,17.98
2023-03-26T08:58:02.718Z,16.77
2023-03-26T09:00:47.399Z,18.27
2023-03-26T09:03:41.514Z,18.95
2023-03-26T09:06:41.488Z,18.70
2023-03-26T09:09:57.535Z,18.15
2023-03-26T09:12:45.937Z,19.17
2023-03-26T09:15:47.506Z,18.23
2023-03-26T09:18:42.721Z,20.05
2023-03-26T09:22:02.400Z,20.92
2023-03-26T09:24:49.576Z,20.65
2023-03-26T09:27:37.406Z,23.23
2023-03-26T09:30:39.492Z,18.27
2023-03-26T09:33:40.019Z,18.13
2023-03-26T09:36:22.794Z,16.05
2023-03-26T09:39:00.419Z,16.35
2023-03-26T09:41:39.087Z,21.00
2023-03-26T09:44:45.364Z,18.60
2023-03-26T09:47:35.938Z,20.17
2023-03-26T09:50:24.821Z,18.58
2023-03-26T09:53:09.210Z,21.40
2023-03-26T09:55:53.651Z,19.50
2023-03-26T09:58:53.807Z,17.27
2023-03-26T10:01:33.254Z,20.25
2023-03-26T10:04:23.708Z,17.45
2023-03-26T10:07:01.382Z,18.95
2023-03-26T10:09:48.283Z,19.23
2023-03-26T10:12:25.390Z,15.73
2023-03-26T10:15:04.952Z,14.60
2023-03-26T10:17:44.377Z,17.52
2023-03-26T10:20:40.339Z,19.15
2023-03-26T10:23:34.952Z,21.75
2023-03-26T10:26:16.225Z,15.65
2023-03-26T10:29:01.474Z,21.87
2023-03-26T10:31:47.124Z,19.50
2023-03-26T10:34:31.478Z,14.25
2023-03-26T10:37:09.353Z,18.10
2023-03-26T10:39:56.475Z,20.73
2023-03-26T10:42:49.467Z,19.90
2023-03-26T10:45:32.375Z,17.92
2023-03-26T10:50:56.080Z,14.75
2023-03-26T10:56:07.648Z,19.42
2023-03-26T10:58:48.703Z,13.82
2023-03-26T11:01:28.335Z,13.82
2023-03-26T11:03:57.388Z,16.98
2023-03-26T11:06:35.314Z,15.85
2023-03-26T11:09:15.400Z,19.27
2023-03-26T11:11:52.136Z,14.07
2023-03-26T11:14:33.684Z,14.15
2023-03-26T11:17:10.337Z,13.57
2023-03-26T11:20:15.369Z,11.10
2023-03-26T11:22:56.888Z,13.13
2023-03-26T11:25:35.356Z,13.10
2023-03-26T11:28:17.151Z,14.40
2023-03-26T11:33:21.749Z,14.25
2023-03-26T11:35:52.368Z,12.98
2023-03-26T11:38:27.580Z,12.70
2023-03-26T11:40:58.399Z,12.35
2023-03-26T11:43:49.614Z,12.13
2023-03-26T11:46:23.475Z,10.35
2023-03-26T11:48:57.334Z,7.38
2023-03-26T11:51:31.447Z,10.55
2023-03-26T11:54:00.520Z,12.75
2023-03-26T11:56:33.534Z,10.98
2023-03-26T11:59:05.425Z,9.30
2023-03-26T12:01:50.554Z,8.30
2023-03-26T12:04:20.912Z,8.43
2023-03-26T12:06:57.443Z,7.60
2023-03-26T12:09:27.728Z,7.38
2023-03-26T12:12:02.509Z,8.75
2023-03-26T12:14:34.792Z,6.75
2023-03-26T12:17:06.081Z,9.68
2023-03-26T12:19:40.844Z,11.75
2023-03-26T12:22:29.793Z,9.70
2023-03-26T12:25:16.426Z,6.68
2023-03-26T12:27:48.384Z,6.32
2023-03-26T12:30:22.381Z,5.60
2023-03-26T12:32:53.108Z,5.68
2023-03-26T12:37:54.405Z,5.97
2023-03-26T12:40:32.380Z,5.50
2023-03-26T12:44:56.578Z,6.53
2023-03-26T12:47:55.252Z,6.30
2023-03-26T12:51:24.399Z,5.78
2023-03-26T12:54:09.667Z,3.95
2023-03-26T12:56:49.782Z,4.30
2023-03-26T12:59:48.737Z,4.80
2023-03-26T13:02:53.972Z,6.38
2023-03-26T13:05:39.515Z,7.03
2023-03-26T13:08:33.701Z,5.28
2023-03-26T13:11:06.852Z,4.97
2023-03-26T13:13:52.633Z,5.88
2023-03-26T13:16:30.976Z,7.57
2023-03-26T13:19:05.711Z,14.00
2023-03-26T13:21:45.959Z,22.38
2023-03-26T13:24:26.960Z,21.20
2023-03-26T13:27:06.233Z,15.18
2023-03-26T13:29:45.997Z,26.75
2023-03-26T13:32:23.532Z,17.27
2023-03-26T13:35:09.420Z,15.13
2023-03-26T13:37:43.128Z,8.45
2023-03-26T13:40:25.418Z,6.47
2023-03-26T13:43:11.921Z,4.90
2023-03-26T13:45:53.937Z,7.50
2023-03-26T13:48:27.923Z,5.03
2023-03-26T13:51:02.765Z,4.88
2023-03-26T13:54:02.967Z,5.05
2023-03-26T13:56:35.803Z,4.35
2023-03-26T13:59:09.937Z,4.75
2023-03-26T14:01:45.402Z,6.07
2023-03-26T14:04:21.351Z,6.07
2023-03-26T14:06:57.227Z,9.93
2023-03-26T14:09:32.497Z,7.07
2023-03-26T14:12:21.491Z,7.88
2023-03-26T14:14:54.315Z,6.50
2023-03-26T14:17:27.885Z,6.10
2023-03-26T14:20:37.348Z,6.35
2023-03-26T14:23:23.794Z,5.55
2023-03-26T14:26:07.657Z,5.78
2023-03-26T14:29:20.509Z,6.97
2023-03-26T14:31:59.394Z,8.73
2023-03-26T14:34:45.250Z,10.20
2023-03-26T14:37:28.474Z,9.35
2023-03-26T14:40:21.896Z,11.85
2023-03-26T14:42:58.825Z,10.20
2023-03-26T14:46:00.192Z,11.82
2023-03-26T14:48:42.486Z,16.42
2023-03-26T14:51:34.137Z,14.20
2023-03-26T14:54:06.722Z,11.43
2023-03-26T14:57:12.156Z,10.70
2023-03-26T15:00:23.563Z,10.07
2023-03-26T15:03:49.030Z,8.32
2023-03-26T15:07:12.755Z,11.90
2023-03-26T15:10:12.488Z,10.10
2023-03-26T15:12:55.259Z,10.07
2023-03-26T15:15:59.019Z,9.15
2023-03-26T15:19:02.066Z,9.85
2023-03-26T15:22:10.455Z,9.07
2023-03-26T15:25:39.752Z,11.27
2023-03-26T15:28:35.010Z,15.38
2023-03-26T15:31:30.949Z,13.05
2023-03-26T15:34:38.379Z,13.18
2023-03-26T15:37:39.477Z,16.02
2023-03-26T15:40:52.022Z,14.80
2023-03-26T15:43:23.406Z,17.10
2023-03-26T15:45:54.705Z,14.35
2023-03-26T15:48:47.424Z,16.83
2023-03-26T15:51:30.168Z,18.00
2023-03-26T15:54:08.408Z,15.27
2023-03-26T15:57:07.020Z,15.73
2023-03-26T15:59:44.136Z,15.07
2023-03-26T16:02:26.047Z,11.73
2023-03-26T16:04:57.555Z,16.83
2023-03-26T16:07:38.869Z,16.75
2023-03-26T16:12:56.588Z,12.65
2023-03-26T16:15:29.505Z,11.45
2023-03-26T16:18:35.685Z,8.32
2023-03-26T16:21:31.132Z,14.75
2023-03-26T16:24:20.364Z,10.57
2023-03-26T16:27:03.076Z,15.07
2023-03-26T16:29:31.131Z,11.65
2023-03-26T16:32:12.068Z,11.60
2023-03-26T16:34:47.487Z,10.10
2023-03-26T16:37:40.943Z,10.73
2023-03-26T16:40:33.630Z,10.82
2023-03-26T16:43:19.667Z,7.83
2023-03-26T16:45:55.386Z,10.13
2023-03-26T16:48:30.330Z,12.25
2023-03-26T16:51:09.694Z,10.98
2023-03-26T16:53:47.590Z,10.50
2023-03-26T16:56:26.086Z,11.57
2023-03-26T16:59:02.177Z,14.30
2023-03-26T17:01:41.377Z,10.85
2023-03-26T17:04:17.095Z,10.52
2023-03-26T17:07:03.263Z,9.85
2023-03-26T17:09:41.365Z,11.68
2023-03-26T17:12:18.536Z,9.15
2023-03-26T17:15:02.392Z,9.35
2023-03-26T17:17:39.855Z,9.02
2023-03-26T17:20:19.916Z,16.55
2023-03-26T17:22:51.980Z,12.10
2023-03-26T17:25:35.896Z,10.15
2023-03-26T17:28:40.558Z,9.15
2023-03-26T17:34:48.462Z,12.05
2023-03-26T17:37:43.289Z,11.60
2023-03-26T17:40:49.606Z,8.20
2023-03-26T17:43:38.054Z,8.70
2023-03-26T17:46:19.641Z,7.03
2023-03-26T17:48:50.940Z,8.80
2023-03-26T17:51:37.004Z,14.30
2023-03-26T17:54:08.368Z,12.30
2023-03-26T17:56:38.526Z,8.23
2023-03-26T17:59:11.857Z,9.50
2023-03-26T18:01:44.978Z,14.57
2023-03-26T18:04:19.678Z,11.43
2023-03-26T18:07:04.213Z,14.93
2023-03-26T18:09:49.907Z,11.75
2023-03-26T18:12:50.200Z,10.80
2023-03-26T18:15:35.186Z,12.50
2023-03-26T18:18:11.754Z,9.18
2023-03-26T18:20:42.505Z,10.45
2023-03-26T18:23:13.090Z,7.07
2023-03-26T18:25:41.387Z,17.25
2023-03-26T18:28:15.537Z,10.13
2023-03-26T18:30:48.144Z,10.57
2023-03-26T18:33:17.188Z,14.77
2023-03-26T18:35:46.608Z,7.95
2023-03-26T18:38:34.933Z,11.43
2023-03-26T18:41:05.780Z,10.05
2023-03-26T18:43:35.553Z,11.10
2023-03-26T18:46:13.177Z,11.57
2023-03-26T18:48:42.721Z,8.73
2023-03-26T18:51:11.483Z,11.52
2023-03-26T18:53:41.736Z,10.48
2023-03-26T18:56:21.752Z,9.55
2023-03-26T18:58:53.274Z,8.25
2023-03-26T19:01:25.876Z,11.50
2023-03-26T19:03:55.374Z,12.68
2023-03-26T19:06:24.195Z,10.20
2023-03-26T19:08:52.260Z,11.60
2023-03-26T19:11:20.471Z,9.25
2023-03-26T19:13:59.328Z,11.90
2023-03-26T19:16:33.862Z,14.23
2023-03-26T19:19:06.406Z,11.75
2023-03-26T19:21:35.616Z,12.07
2023-03-26T19:24:05.309Z,14.32
2023-03-26T19:26:33.274Z,13.05
2023-03-26T19:29:01.238Z,10.40
2023-03-26T19:31:34.698Z,14.18
2023-03-26T19:34:14.648Z,14.52
2023-03-26T19:36:57.235Z,11.25
2023-03-26T19:39:36.718Z,13.02
2023-03-26T19:42:06.974Z,11.75
2023-03-26T19:44:39.417Z,12.18
2023-03-26T19:47:15.135Z,10.65
2023-03-26T19:49:53.140Z,9.20
2023-03-26T19:52:26.365Z,12.52
2023-03-26T19:54:59.209Z,13.30
2023-03-26T19:57:29.502Z,15.15
2023-03-26T19:59:57.610Z,11.68
2023-03-26T20:02:25.864Z,10.73
2023-03-26T20:04:56.487Z,8.70
2023-03-26T20:07:35.704Z,11.98
2023-03-26T20:10:05.308Z,9.77
2023-03-26T20:12:33.209Z,10.93
2023-03-26T20:15:01.606Z,9.90
2023-03-26T20:17:30.623Z,9.38
2023-03-26T20:19:59.723Z,11.18
2023-03-26T20:22:27.295Z,9.52
2023-03-26T20:24:56.094Z,10.35
2023-03-26T20:27:23.766Z,10.88
2023-03-26T20:29:54.146Z,11.50
2023-03-26T20:32:26.499Z,7.85
2023-03-26T20:34:55.049Z,9.02
2023-03-26T20:37:24.247Z,10.88
2023-03-26T20:39:51.815Z,10.38
2023-03-26T20:42:19.412Z,12.23
2023-03-26T20:44:47.297Z,11.10
2023-03-26T20:47:14.946Z,8.48
2023-03-26T20:49:43.069Z,11.23
2023-03-26T20:52:13.507Z,7.65
2023-03-26T20:54:42.390Z,11.23
2023-03-26T20:57:12.507Z,6.20
2023-03-26T21:02:11.578Z,8.77
2023-03-26T21:04:39.215Z,9.38
2023-03-26T21:07:17.784Z,10.05
2023-03-26T21:09:48.653Z,6.57
2023-03-26T21:12:23.524Z,9.65
2023-03-26T21:14:51.664Z,8.02
2023-03-26T21:17:24.539Z,8.45
2023-03-26T21:19:52.387Z,7.57
2023-03-26T21:22:31.189Z,7.38
2023-03-26T21:25:12.562Z,8.73
2023-03-26T21:27:46.788Z,10.55
2023-03-26T21:30:16.748Z,10.98
2023-03-26T21:32:46.122Z,10.48
2023-03-26T21:35:15.998Z,8.57
2023-03-26T21:37:46.848Z,11.10
2023-03-26T21:40:18.100Z,7.18
2023-03-26T21:42:47.855Z,7.43
2023-03-26T21:45:17.151Z,9.38
2023-03-26T21:47:45.904Z,9.27
2023-03-26T21:50:16.144Z,7.47
2023-03-26T21:52:48.472Z,9.48
2023-03-26T21:55:19.965Z,9.13
2023-03-26T21:58:05.424Z,10.05
2023-03-26T22:00:43.741Z,9.00
2023-03-26T22:03:18.172Z,7.60
2023-03-26T22:05:53.860Z,6.38
2023-03-26T22:08:28.200Z,5.72
2023-03-26T22:11:00.626Z,7.70
2023-03-26T22:13:28.509Z,9.40
2023-03-26T22:15:58.392Z,6.07
2023-03-26T22:18:29.856Z,6.53
2023-03-26T22:20:59.110Z,10.45
2023-03-26T22:23:27.490Z,7.38
2023-03-26T22:25:55.122Z,8.57
2023-03-26T22:28:24.264Z,8.98
2023-03-26T22:30:52.153Z,7.07
2023-03-26T22:33:20.064Z,11.35
2023-03-26T22:35:48.072Z,10.13
2023-03-26T22:38:17.007Z,11.75
2023-03-26T22:40:46.417Z,10.55
2023-03-26T22:43:15.884Z,13.82
2023-03-26T22:45:50.455Z,10.38
2023-03-26T22:48:18.371Z,8.90
2023-03-26T22:50:46.440Z,10.85
2023-03-26T22:53:15.417Z,9.50
2023-03-26T22:55:43.629Z,10.93
2023-03-26T22:58:12.403Z,6.65
2023-03-26T23:00:41.706Z,9.68
2023-03-26T23:03:14.190Z,7.63
2023-03-26T23:05:42.528Z,8.20
2023-03-26T23:08:12.505Z,8.43
2023-03-26T23:10:43.939Z,10.02
2023-03-26T23:13:11.637Z,12.07
2023-03-26T23:15:40.364Z,9.60
2023-03-26T23:18:08.191Z,10.23
2023-03-26T23:20:39.358Z,10.77
2023-03-26T23:23:07.472Z,11.68
2023-03-26T23:25:35.911Z,9.48
2023-03-26T23:28:03.517Z,8.52
2023-03-26T23:30:31.168Z,7.95
2023-03-26T23:32:58.884Z,7.47
2023-03-26T23:35:26.533Z,7.57
2023-03-26T23:37:55.829Z,9.68
2023-03-26T23:40:23.473Z,9.98
2023-03-26T23:42:51.015Z,10.15
2023-03-26T23:45:18.871Z,8.23
2023-03-26T23:47:46.688Z,10.00
2023-03-26T23:50:14.558Z,7.57
2023-03-26T23:52:45.309Z,9.98
2023-03-26T23:55:15.425Z,9.18
2023-03-26T23:57:43.089Z,8.40
